sensor_id;sensor_type;location;lat;lon;timestamp;P1;durP1;ratioP1;P2;durP2;ratioP2
29362;SDS011;16349;53.672;10.014;2023-07-13T00:01:03;4.23;;;2.50;;
29362;SDS011;16349;53.672;10.014;2023-07-13T00:03:31;6.73;;;2.97;;
29362;SDS011;16349;53.672;10.014;2023-07-13T00:06:00;5.57;;;2.70;;
29362;SDS011;16349;53.672;10.014;2023-07-13T00:08:31;6.23;;;2.80;;
29362;SDS011;16349;53.672;10.014;2023-07-13T00:10:59;4.27;;;2.57;;
29362;SDS011;16349;53.672;10.014;2023-07-13T00:13:26;7.13;;;3.00;;
29362;SDS011;16349;53.672;10.014;2023-07-13T00:15:53;4.30;;;2.97;;
29362;SDS011;16349;53.672;10.014;2023-07-13T00:18:21;6.53;;;2.43;;
29362;SDS011;16349;53.672;10.014;2023-07-13T00:20:48;6.80;;;2.90;;
29362;SDS011;16349;53.672;10.014;2023-07-13T00:23:15;4.97;;;3.53;;
29362;SDS011;16349;53.672;10.014;2023-07-13T00:25:44;6.40;;;2.53;;
29362;SDS011;16349;53.672;10.014;2023-07-13T00:28:12;4.60;;;2.50;;
29362;SDS011;16349;53.672;10.014;2023-07-13T00:30:39;6.10;;;2.93;;
29362;SDS011;16349;53.672;10.014;2023-07-13T00:33:06;6.37;;;2.97;;
29362;SDS011;16349;53.672;10.014;2023-07-13T00:35:33;3.00;;;2.63;;
29362;SDS011;16349;53.672;10.014;2023-07-13T00:38:01;3.57;;;2.97;;
29362;SDS011;16349;53.672;10.014;2023-07-13T00:40:28;3.20;;;2.90;;
29362;SDS011;16349;53.672;10.014;2023-07-13T00:42:58;2.90;;;2.70;;
29362;SDS011;16349;53.672;10.014;2023-07-13T00:48:11;4.23;;;3.00;;
29362;SDS011;16349;53.672;10.014;2023-07-13T00:50:38;4.57;;;3.13;;
29362;SDS011;16349;53.672;10.014;2023-07-13T00:53:06;5.00;;;2.80;;
29362;SDS011;16349;53.672;10.014;2023-07-13T00:55:34;4.60;;;2.93;;
29362;SDS011;16349;53.672;10.014;2023-07-13T00:58:03;4.03;;;3.23;;
29362;SDS011;16349;53.672;10.014;2023-07-13T01:00:32;3.93;;;3.30;;
29362;SDS011;16349;53.672;10.014;2023-07-13T01:03:01;5.50;;;3.27;;
29362;SDS011;16349;53.672;10.014;2023-07-13T01:05:30;4.07;;;3.27;;
29362;SDS011;16349;53.672;10.014;2023-07-13T01:07:58;4.00;;;3.27;;
29362;SDS011;16349;53.672;10.014;2023-07-13T01:10:26;6.10;;;3.50;;
29362;SDS011;16349;53.672;10.014;2023-07-13T01:12:53;4.50;;;3.83;;
29362;SDS011;16349;53.672;10.014;2023-07-13T01:15:37;4.83;;;3.87;;
29362;SDS011;16349;53.672;10.014;2023-07-13T01:18:05;5.37;;;4.10;;
29362;SDS011;16349;53.672;10.014;2023-07-13T01:20:32;5.63;;;3.80;;
29362;SDS011;16349;53.672;10.014;2023-07-13T01:23:04;5.00;;;3.83;;
29362;SDS011;16349;53.672;10.014;2023-07-13T01:25:32;4.83;;;3.93;;
29362;SDS011;16349;53.672;10.014;2023-07-13T01:28:00;3.97;;;3.57;;
29362;SDS011;16349;53.672;10.014;2023-07-13T01:30:28;4.40;;;3.73;;
29362;SDS011;16349;53.672;10.014;2023-07-13T01:32:54;3.70;;;3.10;;
29362;SDS011;16349;53.672;10.014;2023-07-13T01:35:21;4.63;;;2.87;;
29362;SDS011;16349;53.672;10.014;2023-07-13T01:37:50;5.20;;;3.80;;
29362;SDS011;16349;53.672;10.014;2023-07-13T01:40:18;6.33;;;3.57;;
29362;SDS011;16349;53.672;10.014;2023-07-13T01:42:46;4.57;;;3.27;;
29362;SDS011;16349;53.672;10.014;2023-07-13T01:45:12;5.03;;;3.20;;
29362;SDS011;16349;53.672;10.014;2023-07-13T01:47:39;4.73;;;3.30;;
29362;SDS011;16349;53.672;10.014;2023-07-13T01:50:06;4.30;;;3.40;;
29362;SDS011;16349;53.672;10.014;2023-07-13T01:52:34;4.07;;;3.50;;
29362;SDS011;16349;53.672;10.014;2023-07-13T01:55:00;4.87;;;3.90;;
29362;SDS011;16349;53.672;10.014;2023-07-13T01:57:29;5.90;;;3.60;;
29362;SDS011;16349;53.672;10.014;2023-07-13T01:59:56;5.37;;;3.63;;
29362;SDS011;16349;53.672;10.014;2023-07-13T02:02:23;3.43;;;2.77;;
29362;SDS011;16349;53.672;10.014;2023-07-13T02:04:50;3.13;;;2.80;;
29362;SDS011;16349;53.672;10.014;2023-07-13T02:07:17;5.80;;;3.50;;
29362;SDS011;16349;53.672;10.014;2023-07-13T02:09:44;4.93;;;3.90;;
29362;SDS011;16349;53.672;10.014;2023-07-13T02:12:10;4.20;;;3.77;;
29362;SDS011;16349;53.672;10.014;2023-07-13T02:14:39;3.87;;;3.57;;
29362;SDS011;16349;53.672;10.014;2023-07-13T02:17:05;5.17;;;3.87;;
29362;SDS011;16349;53.672;10.014;2023-07-13T02:19:32;3.83;;;3.47;;
29362;SDS011;16349;53.672;10.014;2023-07-13T02:21:59;5.10;;;3.77;;
29362;SDS011;16349;53.672;10.014;2023-07-13T02:24:26;3.83;;;3.53;;
29362;SDS011;16349;53.672;10.014;2023-07-13T02:26:52;6.37;;;3.40;;
29362;SDS011;16349;53.672;10.014;2023-07-13T02:29:19;7.23;;;4.07;;
29362;SDS011;16349;53.672;10.014;2023-07-13T02:31:48;4.83;;;3.50;;
29362;SDS011;16349;53.672;10.014;2023-07-13T02:34:15;3.50;;;3.20;;
29362;SDS011;16349;53.672;10.014;2023-07-13T02:36:41;3.67;;;3.07;;
29362;SDS011;16349;53.672;10.014;2023-07-13T02:39:09;4.27;;;3.87;;
29362;SDS011;16349;53.672;10.014;2023-07-13T02:41:36;4.27;;;3.53;;
29362;SDS011;16349;53.672;10.014;2023-07-13T02:44:04;7.70;;;4.00;;
29362;SDS011;16349;53.672;10.014;2023-07-13T02:46:32;4.00;;;3.53;;
29362;SDS011;16349;53.672;10.014;2023-07-13T02:49:01;4.43;;;4.03;;
29362;SDS011;16349;53.672;10.014;2023-07-13T02:51:28;4.80;;;4.03;;
29362;SDS011;16349;53.672;10.014;2023-07-13T02:53:56;5.20;;;4.80;;
29362;SDS011;16349;53.672;10.014;2023-07-13T02:56:24;4.37;;;3.97;;
29362;SDS011;16349;53.672;10.014;2023-07-13T02:58:52;6.13;;;4.80;;
29362;SDS011;16349;53.672;10.014;2023-07-13T03:01:19;5.43;;;4.73;;
29362;SDS011;16349;53.672;10.014;2023-07-13T03:03:47;4.90;;;4.40;;
29362;SDS011;16349;53.672;10.014;2023-07-13T03:06:16;4.53;;;4.13;;
29362;SDS011;16349;53.672;10.014;2023-07-13T03:08:49;7.33;;;4.90;;
29362;SDS011;16349;53.672;10.014;2023-07-13T03:11:17;6.37;;;5.03;;
29362;SDS011;16349;53.672;10.014;2023-07-13T03:13:50;4.87;;;4.47;;
29362;SDS011;16349;53.672;10.014;2023-07-13T03:16:19;6.63;;;5.20;;
29362;SDS011;16349;53.672;10.014;2023-07-13T03:18:48;5.63;;;4.77;;
29362;SDS011;16349;53.672;10.014;2023-07-13T03:21:17;5.33;;;4.57;;
29362;SDS011;16349;53.672;10.014;2023-07-13T03:23:45;5.03;;;4.50;;
29362;SDS011;16349;53.672;10.014;2023-07-13T03:26:15;5.23;;;4.73;;
29362;SDS011;16349;53.672;10.014;2023-07-13T03:28:43;5.80;;;4.57;;
29362;SDS011;16349;53.672;10.014;2023-07-13T03:31:15;4.97;;;4.57;;
29362;SDS011;16349;53.672;10.014;2023-07-13T03:33:42;5.70;;;4.90;;
29362;SDS011;16349;53.672;10.014;2023-07-13T03:36:12;5.37;;;4.87;;
29362;SDS011;16349;53.672;10.014;2023-07-13T03:38:41;5.63;;;4.40;;
29362;SDS011;16349;53.672;10.014;2023-07-13T03:41:08;4.90;;;4.50;;
29362;SDS011;16349;53.672;10.014;2023-07-13T03:43:35;5.27;;;4.87;;
29362;SDS011;16349;53.672;10.014;2023-07-13T03:46:03;6.33;;;4.90;;
29362;SDS011;16349;53.672;10.014;2023-07-13T03:48:30;5.23;;;4.77;;
29362;SDS011;16349;53.672;10.014;2023-07-13T03:50:57;5.47;;;4.97;;
29362;SDS011;16349;53.672;10.014;2023-07-13T03:53:25;4.53;;;4.10;;
29362;SDS011;16349;53.672;10.014;2023-07-13T03:55:54;5.60;;;4.37;;
29362;SDS011;16349;53.672;10.014;2023-07-13T03:58:26;5.37;;;4.87;;
29362;SDS011;16349;53.672;10.014;2023-07-13T04:00:58;4.30;;;3.90;;
29362;SDS011;16349;53.672;10.014;2023-07-13T04:03:25;5.63;;;4.73;;
29362;SDS011;16349;53.672;10.014;2023-07-13T04:05:54;6.57;;;4.87;;
29362;SDS011;16349;53.672;10.014;2023-07-13T04:08:24;4.90;;;4.40;;
29362;SDS011;16349;53.672;10.014;2023-07-13T04:10:52;7.77;;;4.53;;
29362;SDS011;16349;53.672;10.014;2023-07-13T04:13:20;7.47;;;4.90;;
29362;SDS011;16349;53.672;10.014;2023-07-13T04:15:47;5.77;;;4.60;;
29362;SDS011;16349;53.672;10.014;2023-07-13T04:18:15;5.10;;;4.60;;
29362;SDS011;16349;53.672;10.014;2023-07-13T04:20:42;5.47;;;4.40;;
29362;SDS011;16349;53.672;10.014;2023-07-13T04:23:09;5.27;;;4.07;;
29362;SDS011;16349;53.672;10.014;2023-07-13T04:25:36;4.23;;;3.80;;
29362;SDS011;16349;53.672;10.014;2023-07-13T04:28:04;5.53;;;4.03;;
29362;SDS011;16349;53.672;10.014;2023-07-13T04:30:33;4.50;;;4.10;;
29362;SDS011;16349;53.672;10.014;2023-07-13T04:33:00;4.57;;;3.93;;
29362;SDS011;16349;53.672;10.014;2023-07-13T04:35:27;6.83;;;3.80;;
29362;SDS011;16349;53.672;10.014;2023-07-13T04:37:54;5.40;;;3.67;;
29362;SDS011;16349;53.672;10.014;2023-07-13T04:40:21;5.33;;;4.30;;
29362;SDS011;16349;53.672;10.014;2023-07-13T04:42:48;5.73;;;3.80;;
29362;SDS011;16349;53.672;10.014;2023-07-13T04:45:16;4.70;;;4.30;;
29362;SDS011;16349;53.672;10.014;2023-07-13T04:47:47;10.30;;;4.27;;
29362;SDS011;16349;53.672;10.014;2023-07-13T04:50:14;5.33;;;4.17;;
29362;SDS011;16349;53.672;10.014;2023-07-13T04:52:45;9.00;;;4.43;;
29362;SDS011;16349;53.672;10.014;2023-07-13T04:55:12;8.20;;;4.47;;
29362;SDS011;16349;53.672;10.014;2023-07-13T04:57:39;6.53;;;4.07;;
29362;SDS011;16349;53.672;10.014;2023-07-13T05:00:07;5.60;;;4.30;;
29362;SDS011;16349;53.672;10.014;2023-07-13T05:02:37;5.30;;;4.27;;
29362;SDS011;16349;53.672;10.014;2023-07-13T05:05:06;10.87;;;5.10;;
29362;SDS011;16349;53.672;10.014;2023-07-13T05:07:34;6.50;;;4.40;;
29362;SDS011;16349;53.672;10.014;2023-07-13T05:10:01;7.43;;;4.70;;
29362;SDS011;16349;53.672;10.014;2023-07-13T05:12:28;4.40;;;4.00;;
29362;SDS011;16349;53.672;10.014;2023-07-13T05:14:56;5.27;;;4.57;;
29362;SDS011;16349;53.672;10.014;2023-07-13T05:17:23;8.70;;;4.17;;
29362;SDS011;16349;53.672;10.014;2023-07-13T05:19:50;7.70;;;4.50;;
29362;SDS011;16349;53.672;10.014;2023-07-13T05:22:19;6.73;;;4.10;;
29362;SDS011;16349;53.672;10.014;2023-07-13T05:24:46;7.83;;;4.70;;
29362;SDS011;16349;53.672;10.014;2023-07-13T05:27:13;5.70;;;3.57;;
29362;SDS011;16349;53.672;10.014;2023-07-13T05:29:40;10.53;;;4.50;;
29362;SDS011;16349;53.672;10.014;2023-07-13T05:32:07;7.90;;;4.87;;
29362;SDS011;16349;53.672;10.014;2023-07-13T05:34:34;7.43;;;4.27;;
29362;SDS011;16349;53.672;10.014;2023-07-13T05:37:01;9.07;;;4.50;;
29362;SDS011;16349;53.672;10.014;2023-07-13T05:39:30;7.17;;;4.10;;
29362;SDS011;16349;53.672;10.014;2023-07-13T05:41:57;8.50;;;3.97;;
29362;SDS011;16349;53.672;10.014;2023-07-13T05:44:24;7.63;;;3.67;;
29362;SDS011;16349;53.672;10.014;2023-07-13T05:46:51;6.10;;;4.00;;
29362;SDS011;16349;53.672;10.014;2023-07-13T05:49:20;10.07;;;4.17;;
29362;SDS011;16349;53.672;10.014;2023-07-13T05:51:47;5.73;;;3.87;;
29362;SDS011;16349;53.672;10.014;2023-07-13T05:54:15;6.93;;;4.23;;
29362;SDS011;16349;53.672;10.014;2023-07-13T05:56:43;9.83;;;3.80;;
29362;SDS011;16349;53.672;10.014;2023-07-13T05:59:10;8.73;;;4.47;;
29362;SDS011;16349;53.672;10.014;2023-07-13T06:01:37;10.70;;;4.40;;
29362;SDS011;16349;53.672;10.014;2023-07-13T06:04:04;8.13;;;4.03;;
29362;SDS011;16349;53.672;10.014;2023-07-13T06:06:32;9.10;;;4.13;;
29362;SDS011;16349;53.672;10.014;2023-07-13T06:08:59;9.30;;;4.33;;
29362;SDS011;16349;53.672;10.014;2023-07-13T06:11:26;6.93;;;4.13;;
29362;SDS011;16349;53.672;10.014;2023-07-13T06:13:56;14.10;;;4.43;;
29362;SDS011;16349;53.672;10.014;2023-07-13T06:16:23;9.70;;;4.53;;
29362;SDS011;16349;53.672;10.014;2023-07-13T06:18:50;6.37;;;3.90;;
29362;SDS011;16349;53.672;10.014;2023-07-13T06:21:19;10.47;;;4.37;;
29362;SDS011;16349;53.672;10.014;2023-07-13T06:23:46;10.00;;;4.60;;
29362;SDS011;16349;53.672;10.014;2023-07-13T06:26:14;7.70;;;3.80;;
29362;SDS011;16349;53.672;10.014;2023-07-13T06:28:41;7.77;;;4.10;;
29362;SDS011;16349;53.672;10.014;2023-07-13T06:31:10;9.40;;;4.23;;
29362;SDS011;16349;53.672;10.014;2023-07-13T06:33:38;6.60;;;3.37;;
29362;SDS011;16349;53.672;10.014;2023-07-13T06:36:05;11.07;;;3.73;;
29362;SDS011;16349;53.672;10.014;2023-07-13T06:38:34;5.47;;;4.07;;
29362;SDS011;16349;53.672;10.014;2023-07-13T06:41:01;8.57;;;3.83;;
29362;SDS011;16349;53.672;10.014;2023-07-13T06:43:28;8.80;;;4.00;;
29362;SDS011;16349;53.672;10.014;2023-07-13T06:45:57;9.53;;;3.87;;
29362;SDS011;16349;53.672;10.014;2023-07-13T06:48:26;7.20;;;4.00;;
29362;SDS011;16349;53.672;10.014;2023-07-13T06:50:53;8.00;;;3.17;;
29362;SDS011;16349;53.672;10.014;2023-07-13T06:53:21;9.00;;;4.03;;
29362;SDS011;16349;53.672;10.014;2023-07-13T06:55:48;8.07;;;3.33;;
29362;SDS011;16349;53.672;10.014;2023-07-13T06:58:17;7.23;;;3.30;;
29362;SDS011;16349;53.672;10.014;2023-07-13T07:00:44;8.90;;;3.50;;
29362;SDS011;16349;53.672;10.014;2023-07-13T07:03:11;7.00;;;3.43;;
29362;SDS011;16349;53.672;10.014;2023-07-13T07:05:40;8.33;;;3.23;;
29362;SDS011;16349;53.672;10.014;2023-07-13T07:08:07;6.67;;;2.53;;
29362;SDS011;16349;53.672;10.014;2023-07-13T07:10:34;8.37;;;3.17;;
29362;SDS011;16349;53.672;10.014;2023-07-13T07:13:02;7.83;;;3.20;;
29362;SDS011;16349;53.672;10.014;2023-07-13T07:15:30;8.53;;;3.20;;
29362;SDS011;16349;53.672;10.014;2023-07-13T07:17:57;6.57;;;2.93;;
29362;SDS011;16349;53.672;10.014;2023-07-13T07:20:24;6.47;;;3.17;;
29362;SDS011;16349;53.672;10.014;2023-07-13T07:22:54;8.90;;;3.20;;
29362;SDS011;16349;53.672;10.014;2023-07-13T07:25:21;7.73;;;2.67;;
29362;SDS011;16349;53.672;10.014;2023-07-13T07:27:48;4.30;;;2.50;;
29362;SDS011;16349;53.672;10.014;2023-07-13T07:30:15;5.23;;;3.10;;
29362;SDS011;16349;53.672;10.014;2023-07-13T07:32:42;12.17;;;3.50;;
29362;SDS011;16349;53.672;10.014;2023-07-13T07:35:09;4.50;;;2.50;;
29362;SDS011;16349;53.672;10.014;2023-07-13T07:37:37;9.10;;;2.37;;
29362;SDS011;16349;53.672;10.014;2023-07-13T07:40:07;6.53;;;3.03;;
29362;SDS011;16349;53.672;10.014;2023-07-13T07:42:34;8.97;;;3.67;;
29362;SDS011;16349;53.672;10.014;2023-07-13T07:45:01;5.30;;;3.07;;
29362;SDS011;16349;53.672;10.014;2023-07-13T07:47:28;7.37;;;3.17;;
29362;SDS011;16349;53.672;10.014;2023-07-13T07:49:56;9.63;;;2.50;;
29362;SDS011;16349;53.672;10.014;2023-07-13T07:52:23;10.37;;;3.03;;
29362;SDS011;16349;53.672;10.014;2023-07-13T07:54:51;6.57;;;2.73;;
29362;SDS011;16349;53.672;10.014;2023-07-13T07:57:20;5.47;;;2.57;;
29362;SDS011;16349;53.672;10.014;2023-07-13T07:59:47;6.77;;;3.63;;
29362;SDS011;16349;53.672;10.014;2023-07-13T08:02:14;7.60;;;2.20;;
29362;SDS011;16349;53.672;10.014;2023-07-13T08:04:41;6.60;;;2.33;;
29362;SDS011;16349;53.672;10.014;2023-07-13T08:07:08;7.87;;;2.80;;
29362;SDS011;16349;53.672;10.014;2023-07-13T08:09:35;4.07;;;2.10;;
29362;SDS011;16349;53.672;10.014;2023-07-13T08:12:02;7.10;;;2.57;;
29362;SDS011;16349;53.672;10.014;2023-07-13T08:14:31;5.57;;;2.43;;
29362;SDS011;16349;53.672;10.014;2023-07-13T08:16:58;5.47;;;2.53;;
29362;SDS011;16349;53.672;10.014;2023-07-13T08:19:25;13.00;;;2.83;;
29362;SDS011;16349;53.672;10.014;2023-07-13T08:21:52;10.50;;;2.70;;
29362;SDS011;16349;53.672;10.014;2023-07-13T08:24:21;4.73;;;2.60;;
29362;SDS011;16349;53.672;10.014;2023-07-13T08:26:50;6.57;;;2.77;;
29362;SDS011;16349;53.672;10.014;2023-07-13T08:29:17;6.73;;;2.07;;
29362;SDS011;16349;53.672;10.014;2023-07-13T08:31:46;4.37;;;2.00;;
29362;SDS011;16349;53.672;10.014;2023-07-13T08:34:12;7.77;;;3.03;;
29362;SDS011;16349;53.672;10.014;2023-07-13T08:36:40;7.93;;;2.20;;
29362;SDS011;16349;53.672;10.014;2023-07-13T08:39:06;3.77;;;1.90;;
29362;SDS011;16349;53.672;10.014;2023-07-13T08:41:33;4.57;;;1.80;;
29362;SDS011;16349;53.672;10.014;2023-07-13T08:44:01;7.20;;;2.37;;
29362;SDS011;16349;53.672;10.014;2023-07-13T08:46:33;5.73;;;2.70;;
29362;SDS011;16349;53.672;10.014;2023-07-13T08:49:05;6.97;;;2.63;;
29362;SDS011;16349;53.672;10.014;2023-07-13T08:51:38;5.30;;;2.20;;
29362;SDS011;16349;53.672;10.014;2023-07-13T08:54:12;8.27;;;2.17;;
29362;SDS011;16349;53.672;10.014;2023-07-13T08:56:45;6.33;;;2.20;;
29362;SDS011;16349;53.672;10.014;2023-07-13T08:59:14;3.57;;;2.10;;
29362;SDS011;16349;53.672;10.014;2023-07-13T09:01:56;3.80;;;2.37;;
29362;SDS011;16349;53.672;10.014;2023-07-13T09:04:34;7.40;;;2.10;;
29362;SDS011;16349;53.672;10.014;2023-07-13T09:07:07;5.80;;;2.10;;
29362;SDS011;16349;53.672;10.014;2023-07-13T09:09:44;7.97;;;2.47;;
29362;SDS011;16349;53.672;10.014;2023-07-13T09:12:22;4.07;;;2.13;;
29362;SDS011;16349;53.672;10.014;2023-07-13T09:14:55;4.20;;;1.60;;
29362;SDS011;16349;53.672;10.014;2023-07-13T09:17:25;8.93;;;1.83;;
29362;SDS011;16349;53.672;10.014;2023-07-13T09:19:57;6.83;;;2.30;;
29362;SDS011;16349;53.672;10.014;2023-07-13T09:22:27;4.40;;;2.07;;
29362;SDS011;16349;53.672;10.014;2023-07-13T09:24:57;3.00;;;1.63;;
29362;SDS011;16349;53.672;10.014;2023-07-13T09:27:33;3.37;;;1.90;;
29362;SDS011;16349;53.672;10.014;2023-07-13T09:30:11;6.93;;;1.97;;
29362;SDS011;16349;53.672;10.014;2023-07-13T09:32:51;3.83;;;2.03;;
29362;SDS011;16349;53.672;10.014;2023-07-13T09:35:21;3.87;;;1.70;;
29362;SDS011;16349;53.672;10.014;2023-07-13T09:37:56;3.67;;;1.70;;
29362;SDS011;16349;53.672;10.014;2023-07-13T09:40:24;4.73;;;1.80;;
29362;SDS011;16349;53.672;10.014;2023-07-13T09:42:56;6.03;;;2.07;;
29362;SDS011;16349;53.672;10.014;2023-07-13T09:45:27;3.60;;;1.67;;
29362;SDS011;16349;53.672;10.014;2023-07-13T09:47:58;6.50;;;2.13;;
29362;SDS011;16349;53.672;10.014;2023-07-13T09:50:27;2.87;;;1.80;;
29362;SDS011;16349;53.672;10.014;2023-07-13T09:52:54;5.50;;;1.80;;
29362;SDS011;16349;53.672;10.014;2023-07-13T09:55:25;3.77;;;1.70;;
29362;SDS011;16349;53.672;10.014;2023-07-13T09:57:54;8.70;;;2.10;;
29362;SDS011;16349;53.672;10.014;2023-07-13T10:00:22;3.50;;;1.90;;
29362;SDS011;16349;53.672;10.014;2023-07-13T10:03:04;6.50;;;2.00;;
29362;SDS011;16349;53.672;10.014;2023-07-13T10:05:42;4.77;;;1.53;;
29362;SDS011;16349;53.672;10.014;2023-07-13T10:08:17;4.13;;;1.60;;
29362;SDS011;16349;53.672;10.014;2023-07-13T10:10:46;2.17;;;1.92;;
29362;SDS011;16349;53.672;10.014;2023-07-13T10:13:31;4.10;;;1.60;;
29362;SDS011;16349;53.672;10.014;2023-07-13T10:16:02;4.53;;;1.67;;
29362;SDS011;16349;53.672;10.014;2023-07-13T10:18:39;4.93;;;2.10;;
29362;SDS011;16349;53.672;10.014;2023-07-13T10:21:11;4.85;;;1.77;;
29362;SDS011;16349;53.672;10.014;2023-07-13T10:23:40;5.27;;;2.00;;
29362;SDS011;16349;53.672;10.014;2023-07-13T10:26:09;1.88;;;1.63;;
29362;SDS011;16349;53.672;10.014;2023-07-13T10:28:42;3.20;;;1.88;;
29362;SDS011;16349;53.672;10.014;2023-07-13T10:31:13;1.83;;;1.50;;
29362;SDS011;16349;53.672;10.014;2023-07-13T10:33:42;6.22;;;2.10;;
29362;SDS011;16349;53.672;10.014;2023-07-13T10:36:14;2.72;;;1.60;;
29362;SDS011;16349;53.672;10.014;2023-07-13T10:38:50;2.33;;;1.67;;
29362;SDS011;16349;53.672;10.014;2023-07-13T10:41:20;5.68;;;1.80;;
29362;SDS011;16349;53.672;10.014;2023-07-13T10:43:51;4.55;;;2.28;;
29362;SDS011;16349;53.672;10.014;2023-07-13T10:46:19;3.55;;;1.55;;
29362;SDS011;16349;53.672;10.014;2023-07-13T10:48:48;3.20;;;1.70;;
29362;SDS011;16349;53.672;10.014;2023-07-13T10:51:19;2.60;;;1.20;;
29362;SDS011;16349;53.672;10.014;2023-07-13T10:53:47;5.10;;;1.55;;
29362;SDS011;16349;53.672;10.014;2023-07-13T10:56:35;2.92;;;1.40;;
29362;SDS011;16349;53.672;10.014;2023-07-13T10:59:02;4.63;;;1.40;;
29362;SDS011;16349;53.672;10.014;2023-07-13T11:01:41;2.30;;;1.60;;
29362;SDS011;16349;53.672;10.014;2023-07-13T11:04:16;3.95;;;1.70;;
29362;SDS011;16349;53.672;10.014;2023-07-13T11:06:47;2.67;;;1.48;;
29362;SDS011;16349;53.672;10.014;2023-07-13T11:09:25;4.32;;;1.60;;
29362;SDS011;16349;53.672;10.014;2023-07-13T11:11:58;5.32;;;1.58;;
29362;SDS011;16349;53.672;10.014;2023-07-13T11:14:29;3.47;;;1.70;;
29362;SDS011;16349;53.672;10.014;2023-07-13T11:17:00;6.22;;;1.92;;
29362;SDS011;16349;53.672;10.014;2023-07-13T11:19:51;5.15;;;1.70;;
29362;SDS011;16349;53.672;10.014;2023-07-13T11:22:24;4.15;;;2.15;;
29362;SDS011;16349;53.672;10.014;2023-07-13T11:25:20;2.22;;;1.45;;
29362;SDS011;16349;53.672;10.014;2023-07-13T11:27:52;4.38;;;1.67;;
29362;SDS011;16349;53.672;10.014;2023-07-13T11:30:35;4.65;;;1.70;;
29362;SDS011;16349;53.672;10.014;2023-07-13T11:33:13;3.38;;;1.48;;
29362;SDS011;16349;53.672;10.014;2023-07-13T11:35:45;3.67;;;1.50;;
29362;SDS011;16349;53.672;10.014;2023-07-13T11:38:30;1.40;;;1.15;;
29362;SDS011;16349;53.672;10.014;2023-07-13T11:41:03;3.33;;;1.48;;
29362;SDS011;16349;53.672;10.014;2023-07-13T11:43:32;4.45;;;1.60;;
29362;SDS011;16349;53.672;10.014;2023-07-13T11:46:12;5.22;;;1.55;;
29362;SDS011;16349;53.672;10.014;2023-07-13T11:48:42;5.38;;;1.83;;
29362;SDS011;16349;53.672;10.014;2023-07-13T11:51:15;2.10;;;1.15;;
29362;SDS011;16349;53.672;10.014;2023-07-13T11:53:48;6.20;;;2.03;;
29362;SDS011;16349;53.672;10.014;2023-07-13T11:56:17;1.90;;;1.15;;
29362;SDS011;16349;53.672;10.014;2023-07-13T11:58:47;2.53;;;1.05;;
29362;SDS011;16349;53.672;10.014;2023-07-13T12:01:16;5.53;;;1.27;;
29362;SDS011;16349;53.672;10.014;2023-07-13T12:03:47;4.97;;;1.33;;
29362;SDS011;16349;53.672;10.014;2023-07-13T12:06:23;3.85;;;1.50;;
29362;SDS011;16349;53.672;10.014;2023-07-13T12:08:56;2.15;;;1.17;;
29362;SDS011;16349;53.672;10.014;2023-07-13T12:11:24;5.82;;;1.50;;
29362;SDS011;16349;53.672;10.014;2023-07-13T12:13:51;2.65;;;1.27;;
29362;SDS011;16349;53.672;10.014;2023-07-13T12:16:21;2.53;;;1.25;;
29362;SDS011;16349;53.672;10.014;2023-07-13T12:18:53;3.00;;;1.20;;
29362;SDS011;16349;53.672;10.014;2023-07-13T12:21:22;4.78;;;1.48;;
29362;SDS011;16349;53.672;10.014;2023-07-13T12:23:53;2.07;;;1.20;;
29362;SDS011;16349;53.672;10.014;2023-07-13T12:26:22;4.07;;;1.77;;
29362;SDS011;16349;53.672;10.014;2023-07-13T12:28:49;3.33;;;1.30;;
29362;SDS011;16349;53.672;10.014;2023-07-13T12:31:26;3.40;;;0.97;;
29362;SDS011;16349;53.672;10.014;2023-07-13T12:33:58;2.90;;;1.57;;
29362;SDS011;16349;53.672;10.014;2023-07-13T12:36:34;3.77;;;1.80;;
29362;SDS011;16349;53.672;10.014;2023-07-13T12:39:04;3.73;;;1.77;;
29362;SDS011;16349;53.672;10.014;2023-07-13T12:41:39;3.97;;;1.60;;
29362;SDS011;16349;53.672;10.014;2023-07-13T12:44:09;1.87;;;1.60;;
29362;SDS011;16349;53.672;10.014;2023-07-13T12:46:38;2.87;;;1.60;;
29362;SDS011;16349;53.672;10.014;2023-07-13T12:49:06;3.60;;;2.00;;
29362;SDS011;16349;53.672;10.014;2023-07-13T12:51:35;5.00;;;2.20;;
29362;SDS011;16349;53.672;10.014;2023-07-13T12:54:11;4.37;;;2.10;;
29362;SDS011;16349;53.672;10.014;2023-07-13T12:56:42;4.97;;;2.00;;
29362;SDS011;16349;53.672;10.014;2023-07-13T12:59:14;4.43;;;2.03;;
29362;SDS011;16349;53.672;10.014;2023-07-13T13:01:46;3.90;;;2.20;;
29362;SDS011;16349;53.672;10.014;2023-07-13T13:04:14;4.93;;;2.03;;
29362;SDS011;16349;53.672;10.014;2023-07-13T13:06:43;2.13;;;1.93;;
29362;SDS011;16349;53.672;10.014;2023-07-13T13:09:12;3.30;;;2.83;;
29362;SDS011;16349;53.672;10.014;2023-07-13T13:11:40;6.93;;;2.40;;
29362;SDS011;16349;53.672;10.014;2023-07-13T13:14:07;4.03;;;1.50;;
29362;SDS011;16349;53.672;10.014;2023-07-13T13:16:35;4.13;;;1.87;;
29362;SDS011;16349;53.672;10.014;2023-07-13T13:19:10;3.93;;;1.80;;
29362;SDS011;16349;53.672;10.014;2023-07-13T13:21:39;3.23;;;1.70;;
29362;SDS011;16349;53.672;10.014;2023-07-13T13:24:11;2.00;;;1.50;;
29362;SDS011;16349;53.672;10.014;2023-07-13T13:26:39;1.93;;;1.30;;
29362;SDS011;16349;53.672;10.014;2023-07-13T13:29:14;1.83;;;1.07;;
29362;SDS011;16349;53.672;10.014;2023-07-13T13:31:42;2.57;;;1.50;;
29362;SDS011;16349;53.672;10.014;2023-07-13T13:34:10;3.20;;;1.87;;
29362;SDS011;16349;53.672;10.014;2023-07-13T13:36:39;3.63;;;1.37;;
29362;SDS011;16349;53.672;10.014;2023-07-13T13:39:15;2.47;;;1.43;;
29362;SDS011;16349;53.672;10.014;2023-07-13T13:41:46;2.23;;;1.07;;
29362;SDS011;16349;53.672;10.014;2023-07-13T13:44:13;5.00;;;1.27;;
29362;SDS011;16349;53.672;10.014;2023-07-13T13:46:41;5.10;;;1.50;;
29362;SDS011;16349;53.672;10.014;2023-07-13T13:49:11;2.67;;;1.40;;
29362;SDS011;16349;53.672;10.014;2023-07-13T13:51:42;3.47;;;1.60;;
29362;SDS011;16349;53.672;10.014;2023-07-13T13:54:10;1.50;;;1.40;;
29362;SDS011;16349;53.672;10.014;2023-07-13T13:56:40;2.37;;;1.13;;
29362;SDS011;16349;53.672;10.014;2023-07-13T13:59:08;2.00;;;1.80;;
29362;SDS011;16349;53.672;10.014;2023-07-13T14:01:34;2.60;;;1.50;;
29362;SDS011;16349;53.672;10.014;2023-07-13T14:04:03;2.87;;;1.57;;
29362;SDS011;16349;53.672;10.014;2023-07-13T14:06:30;1.70;;;1.60;;
29362;SDS011;16349;53.672;10.014;2023-07-13T14:08:58;3.10;;;1.63;;
29362;SDS011;16349;53.672;10.014;2023-07-13T14:11:26;1.93;;;1.60;;
29362;SDS011;16349;53.672;10.014;2023-07-13T14:13:55;3.20;;;1.80;;
29362;SDS011;16349;53.672;10.014;2023-07-13T14:16:25;1.90;;;1.47;;
29362;SDS011;16349;53.672;10.014;2023-07-13T14:18:54;2.83;;;1.50;;
29362;SDS011;16349;53.672;10.014;2023-07-13T14:21:23;1.70;;;1.40;;
29362;SDS011;16349;53.672;10.014;2023-07-13T14:23:50;2.40;;;1.60;;
29362;SDS011;16349;53.672;10.014;2023-07-13T14:26:18;2.00;;;1.40;;
29362;SDS011;16349;53.672;10.014;2023-07-13T14:28:47;2.03;;;1.23;;
29362;SDS011;16349;53.672;10.014;2023-07-13T14:31:17;2.57;;;1.57;;
29362;SDS011;16349;53.672;10.014;2023-07-13T14:33:45;2.88;;;1.65;;
29362;SDS011;16349;53.672;10.014;2023-07-13T14:36:20;4.53;;;1.93;;
29362;SDS011;16349;53.672;10.014;2023-07-13T14:38:53;2.40;;;1.60;;
29362;SDS011;16349;53.672;10.014;2023-07-13T14:41:20;2.08;;;1.75;;
29362;SDS011;16349;53.672;10.014;2023-07-13T14:43:47;3.22;;;2.10;;
29362;SDS011;16349;53.672;10.014;2023-07-13T14:49:01;3.80;;;2.40;;
29362;SDS011;16349;53.672;10.014;2023-07-13T14:51:31;2.60;;;1.93;;